createdAt,value
2023-07-25T00:01:07.762Z,16.60
2023-07-25T00:03:35.373Z,14.15
2023-07-25T00:06:04.261Z,14.90
2023-07-25T00:08:32.508Z,13.25
2023-07-25T00:11:00.287Z,13.23
2023-07-25T00:13:28.005Z,14.77
2023-07-25T00:15:55.642Z,14.55
2023-07-25T00:18:23.198Z,15.32
2023-07-25T00:20:50.772Z,13.90
2023-07-25T00:23:18.446Z,15.13
2023-07-25T00:25:46.087Z,14.52
2023-07-25T00:28:13.878Z,11.45
2023-07-25T00:30:41.439Z,11.52
2023-07-25T00:33:09.042Z,14.60
2023-07-25T00:35:36.675Z,17.80
2023-07-25T00:38:06.365Z,14.02
2023-07-25T00:40:33.980Z,12.60
2023-07-25T00:43:06.760Z,13.13
2023-07-25T00:45:34.361Z,11.73
2023-07-25T00:48:01.940Z,12.77
2023-07-25T00:50:29.618Z,8.00
2023-07-25T00:52:59.948Z,15.57
2023-07-25T00:55:29.140Z,11.07
2023-07-25T00:57:56.800Z,9.35
2023-07-25T01:00:24.419Z,20.00
2023-07-25T01:02:55.409Z,9.48
2023-07-25T01:05:23.739Z,10.38
2023-07-25T01:07:51.309Z,9.10
2023-07-25T01:10:19.058Z,8.13
2023-07-25T01:12:46.640Z,10.77
2023-07-25T01:15:14.215Z,14.40
2023-07-25T01:17:41.906Z,8.85
2023-07-25T01:20:10.194Z,10.27
2023-07-25T01:22:38.569Z,11.02
2023-07-25T01:25:06.459Z,11.10
2023-07-25T01:27:34.127Z,9.25
2023-07-25T01:30:01.624Z,8.43
2023-07-25T01:32:29.383Z,12.55
2023-07-25T01:34:56.979Z,7.90
2023-07-25T01:37:24.530Z,16.90
2023-07-25T01:39:52.447Z,14.30
2023-07-25T01:42:20.251Z,9.70
2023-07-25T01:44:47.819Z,7.13
2023-07-25T01:47:15.521Z,11.10
2023-07-25T01:49:43.047Z,9.18
2023-07-25T01:52:10.592Z,11.52
2023-07-25T01:54:38.260Z,9.95
2023-07-25T01:57:06.488Z,10.45
2023-07-25T01:59:34.182Z,11.43
2023-07-25T02:02:02.271Z,9.55
2023-07-25T02:04:29.881Z,9.55
2023-07-25T02:06:57.436Z,11.18
2023-07-25T02:09:25.048Z,8.23
2023-07-25T02:11:52.656Z,10.80
2023-07-25T02:14:20.195Z,8.35
2023-07-25T02:16:48.240Z,13.75
2023-07-25T02:19:15.982Z,12.90
2023-07-25T02:21:43.540Z,10.63
2023-07-25T02:24:11.294Z,10.25
2023-07-25T02:26:40.048Z,11.30
2023-07-25T02:29:07.636Z,8.73
2023-07-25T02:31:35.617Z,15.43
2023-07-25T02:34:03.605Z,9.55
2023-07-25T02:36:31.253Z,10.60
2023-07-25T02:38:58.873Z,12.23
2023-07-25T02:41:26.547Z,9.77
2023-07-25T02:43:54.103Z,9.40
2023-07-25T02:46:21.786Z,14.35
2023-07-25T02:48:49.393Z,12.07
2023-07-25T02:51:16.950Z,13.85
2023-07-25T02:53:44.618Z,10.85
2023-07-25T02:56:12.316Z,9.95
2023-07-25T02:58:39.963Z,9.75
2023-07-25T03:01:07.674Z,11.43
2023-07-25T03:03:35.298Z,9.05
2023-07-25T03:06:03.292Z,13.93
2023-07-25T03:08:30.962Z,11.82
2023-07-25T03:10:58.546Z,11.90
2023-07-25T03:13:26.141Z,12.45
2023-07-25T03:15:53.785Z,11.57
2023-07-25T03:18:21.323Z,11.02
2023-07-25T03:20:48.925Z,11.85
2023-07-25T03:23:16.486Z,11.02
2023-07-25T03:25:44.098Z,10.63
2023-07-25T03:28:11.700Z,12.02
2023-07-25T03:30:39.344Z,10.13
2023-07-25T03:33:08.627Z,10.70
2023-07-25T03:35:36.247Z,9.65
2023-07-25T03:38:03.893Z,11.07
2023-07-25T03:40:31.468Z,13.85
2023-07-25T03:42:58.988Z,15.02
2023-07-25T03:45:26.638Z,11.65
2023-07-25T03:47:54.212Z,12.90
2023-07-25T03:50:21.824Z,11.20
2023-07-25T03:52:49.375Z,11.77
2023-07-25T03:55:17.064Z,15.00
2023-07-25T03:57:44.823Z,12.40
2023-07-25T04:00:12.779Z,14.90
2023-07-25T04:02:40.424Z,11.95
2023-07-25T04:05:09.138Z,13.80
2023-07-25T04:07:36.795Z,11.23
2023-07-25T04:10:04.792Z,11.77
2023-07-25T04:12:32.310Z,12.80
2023-07-25T04:15:01.505Z,10.80
2023-07-25T04:17:29.124Z,11.80
2023-07-25T04:19:56.727Z,13.88
2023-07-25T04:22:24.404Z,11.38
2023-07-25T04:24:52.046Z,10.70
2023-07-25T04:27:19.896Z,12.13
2023-07-25T04:29:47.448Z,13.55
2023-07-25T04:32:15.140Z,12.65
2023-07-25T04:34:42.844Z,12.40
2023-07-25T04:37:10.406Z,12.57
2023-07-25T04:39:37.915Z,10.93
2023-07-25T04:42:05.635Z,11.35
2023-07-25T04:44:33.298Z,14.93
2023-07-25T04:47:00.835Z,10.38
2023-07-25T04:49:28.470Z,10.68
2023-07-25T04:51:56.039Z,16.52
2023-07-25T04:54:23.574Z,12.95
2023-07-25T04:56:54.257Z,11.88
2023-07-25T04:59:21.931Z,13.82
2023-07-25T05:01:49.567Z,12.07
2023-07-25T05:04:17.140Z,12.75
2023-07-25T05:06:44.822Z,12.68
2023-07-25T05:09:12.409Z,15.23
2023-07-25T05:11:40.754Z,10.20
2023-07-25T05:14:08.344Z,11.95
2023-07-25T05:16:35.875Z,10.75
2023-07-25T05:19:03.522Z,13.05
2023-07-25T05:21:31.598Z,11.10
2023-07-25T05:23:59.476Z,11.18
2023-07-25T05:26:27.067Z,11.50
2023-07-25T05:28:55.002Z,11.68
2023-07-25T05:31:22.569Z,11.82
2023-07-25T05:33:50.129Z,12.60
2023-07-25T05:36:18.897Z,11.00
2023-07-25T05:38:46.434Z,10.40
2023-07-25T05:41:14.057Z,13.25
2023-07-25T05:43:41.722Z,12.15
2023-07-25T05:46:10.830Z,13.52
2023-07-25T05:48:38.606Z,13.38
2023-07-25T05:51:06.252Z,12.63
2023-07-25T05:53:34.157Z,11.95
2023-07-25T05:56:01.701Z,11.32
2023-07-25T05:58:29.970Z,13.60
2023-07-25T06:00:57.592Z,14.13
2023-07-25T06:03:25.188Z,12.93
2023-07-25T06:05:52.988Z,15.43
2023-07-25T06:08:20.759Z,12.25
2023-07-25T06:10:50.966Z,15.75
2023-07-25T06:13:18.653Z,12.63
2023-07-25T06:15:46.215Z,14.18
2023-07-25T06:18:13.746Z,12.02
2023-07-25T06:20:41.398Z,10.65
2023-07-25T06:23:09.088Z,16.10
2023-07-25T06:25:36.725Z,13.82
2023-07-25T06:28:06.691Z,12.65
2023-07-25T06:30:34.351Z,16.23
2023-07-25T06:33:01.994Z,13.40
2023-07-25T06:35:29.691Z,11.77
2023-07-25T06:37:57.280Z,10.23
2023-07-25T06:40:25.222Z,15.75
2023-07-25T06:42:52.799Z,12.18
2023-07-25T06:45:20.388Z,13.82
2023-07-25T06:47:47.969Z,11.85
2023-07-25T06:50:15.577Z,12.93
2023-07-25T06:52:43.071Z,12.25
2023-07-25T06:55:10.720Z,14.45
2023-07-25T06:57:38.504Z,14.38
2023-07-25T07:00:06.442Z,10.25
2023-07-25T07:02:34.226Z,12.52
2023-07-25T07:05:08.683Z,10.68
2023-07-25T07:07:43.128Z,11.10
2023-07-25T07:10:10.895Z,11.75
2023-07-25T07:12:38.454Z,14.25
2023-07-25T07:15:06.213Z,13.85
2023-07-25T07:17:34.163Z,13.30
2023-07-25T07:20:02.459Z,15.65
2023-07-25T07:22:29.998Z,10.10
2023-07-25T07:24:57.831Z,11.32
2023-07-25T07:27:25.652Z,13.63
2023-07-25T07:29:56.498Z,12.32
2023-07-25T07:32:24.168Z,12.80
2023-07-25T07:34:51.945Z,11.55
2023-07-25T07:37:20.271Z,12.15
2023-07-25T07:39:48.099Z,14.85
2023-07-25T07:42:15.652Z,14.75
2023-07-25T07:44:43.518Z,14.77
2023-07-25T07:47:11.092Z,13.88
2023-07-25T07:49:38.676Z,14.73
2023-07-25T07:52:15.753Z,15.63
2023-07-25T07:54:47.573Z,14.98
2023-07-25T07:57:18.194Z,16.17
2023-07-25T07:59:46.033Z,12.93
2023-07-25T08:02:13.645Z,15.43
2023-07-25T08:04:41.753Z,16.30
2023-07-25T08:07:09.449Z,16.20
2023-07-25T08:09:37.122Z,12.23
2023-07-25T08:12:05.281Z,15.35
2023-07-25T08:14:32.842Z,14.27
2023-07-25T08:17:03.529Z,16.08
2023-07-25T08:19:31.059Z,11.80
2023-07-25T08:21:58.605Z,14.40
2023-07-25T08:24:26.631Z,11.90
2023-07-25T08:26:54.174Z,11.82
2023-07-25T08:29:22.846Z,12.82
2023-07-25T08:31:50.592Z,12.27
2023-07-25T08:34:18.195Z,12.90
2023-07-25T08:36:45.758Z,11.77
2023-07-25T08:39:13.647Z,11.30
2023-07-25T08:41:44.786Z,15.10
2023-07-25T08:44:13.685Z,11.00
2023-07-25T08:46:43.205Z,13.70
2023-07-25T08:49:12.561Z,13.52
2023-07-25T08:51:43.197Z,11.48
2023-07-25T08:54:17.246Z,11.55
2023-07-25T08:56:46.403Z,12.88
2023-07-25T08:59:14.674Z,14.35
2023-07-25T09:01:42.439Z,14.85
2023-07-25T09:04:11.279Z,16.95
2023-07-25T09:06:38.866Z,11.80
2023-07-25T09:09:06.914Z,13.38
2023-07-25T09:11:37.545Z,11.57
2023-07-25T09:14:05.318Z,11.38
2023-07-25T09:16:34.511Z,14.18
2023-07-25T09:19:02.264Z,14.88
2023-07-25T09:21:30.236Z,14.65
2023-07-25T09:24:01.880Z,13.23
2023-07-25T09:26:30.451Z,13.93
2023-07-25T09:29:00.900Z,11.88
2023-07-25T09:31:29.641Z,12.95
2023-07-25T09:33:57.860Z,15.57
2023-07-25T09:36:25.547Z,13.25
2023-07-25T09:38:55.933Z,14.48
2023-07-25T09:41:24.638Z,13.52
2023-07-25T09:43:53.029Z,15.82
2023-07-25T09:46:21.079Z,18.05
2023-07-25T09:48:52.544Z,14.88
2023-07-25T09:51:20.369Z,13.07
2023-07-25T09:53:52.786Z,13.95
2023-07-25T09:56:24.381Z,20.77
2023-07-25T09:59:06.343Z,15.95
2023-07-25T10:01:35.534Z,14.50
2023-07-25T10:04:03.997Z,14.63
2023-07-25T10:06:33.288Z,17.13
2023-07-25T10:09:01.189Z,17.63
2023-07-25T10:11:30.135Z,12.77
2023-07-25T10:13:58.329Z,13.23
2023-07-25T10:16:26.987Z,14.05
2023-07-25T10:18:56.305Z,12.35
2023-07-25T10:21:28.963Z,16.80
2023-07-25T10:26:25.759Z,17.70
2023-07-25T10:28:54.316Z,14.77
2023-07-25T10:31:26.061Z,18.00
2023-07-25T10:33:57.500Z,16.63
2023-07-25T10:36:25.444Z,16.02
2023-07-25T10:38:54.587Z,15.50
2023-07-25T10:41:25.199Z,19.33
2023-07-25T10:43:58.259Z,19.50
2023-07-25T10:46:32.096Z,14.45
2023-07-25T10:49:04.259Z,14.75
2023-07-25T10:51:53.385Z,18.15
2023-07-25T10:54:22.826Z,19.38
2023-07-25T10:57:08.753Z,16.13
2023-07-25T10:59:56.195Z,16.67
2023-07-25T11:02:50.394Z,16.80
2023-07-25T11:05:22.610Z,14.70
2023-07-25T11:07:55.342Z,16.88
2023-07-25T11:10:26.238Z,11.90
2023-07-25T11:12:55.467Z,12.60
2023-07-25T11:15:36.475Z,17.65
2023-07-25T11:18:10.944Z,11.60
2023-07-25T11:20:38.554Z,14.80
2023-07-25T11:23:06.719Z,13.50
2023-07-25T11:25:34.396Z,13.82
2023-07-25T11:28:02.119Z,13.07
2023-07-25T11:30:29.770Z,13.18
2023-07-25T11:32:57.537Z,15.50
2023-07-25T11:35:31.042Z,15.65
2023-07-25T11:38:04.183Z,11.80
2023-07-25T11:40:31.948Z,20.30
2023-07-25T11:42:59.809Z,13.15
2023-07-25T11:45:27.661Z,19.25
2023-07-25T11:47:56.037Z,17.25
2023-07-25T11:50:29.407Z,23.52
2023-07-25T11:52:59.348Z,16.17
2023-07-25T11:55:28.462Z,18.90
2023-07-25T11:57:56.888Z,17.23
2023-07-25T12:00:25.462Z,17.15
2023-07-25T12:02:53.056Z,18.10
2023-07-25T12:05:30.892Z,20.70
2023-07-25T12:08:05.507Z,18.55
2023-07-25T12:10:34.548Z,19.38
2023-07-25T12:13:05.265Z,23.48
2023-07-25T12:15:46.019Z,23.75
2023-07-25T12:18:32.432Z,17.80
2023-07-25T12:21:01.856Z,14.38
2023-07-25T12:23:33.052Z,22.48
2023-07-25T12:26:02.705Z,20.95
2023-07-25T12:28:40.063Z,24.85
2023-07-25T12:31:07.730Z,27.67
2023-07-25T12:33:35.990Z,21.33
2023-07-25T12:36:03.827Z,39.75
2023-07-25T12:38:31.520Z,19.83
2023-07-25T12:40:59.145Z,23.40
2023-07-25T12:43:26.702Z,22.35
2023-07-25T12:45:54.180Z,28.25
2023-07-25T12:48:21.702Z,24.80
2023-07-25T12:50:49.545Z,24.38
2023-07-25T12:53:17.061Z,23.35
2023-07-25T12:55:45.647Z,23.52
2023-07-25T12:58:13.251Z,23.48
2023-07-25T13:00:40.937Z,22.75
2023-07-25T13:03:10.535Z,24.85
2023-07-25T13:05:39.080Z,21.02
2023-07-25T13:08:07.243Z,26.33
2023-07-25T13:10:34.808Z,26.88
2023-07-25T13:13:03.159Z,28.30
2023-07-25T13:15:30.830Z,26.05
2023-07-25T13:17:58.580Z,26.90
2023-07-25T13:20:26.947Z,23.13
2023-07-25T13:22:55.036Z,21.98
2023-07-25T13:25:22.817Z,25.40
2023-07-25T13:27:50.450Z,21.85
2023-07-25T13:30:18.556Z,25.63
2023-07-25T13:32:48.935Z,23.65
2023-07-25T13:35:16.791Z,23.92
2023-07-25T13:37:44.479Z,23.13
2023-07-25T13:40:12.279Z,23.58
2023-07-25T13:42:40.193Z,23.05
2023-07-25T13:45:08.314Z,22.27
2023-07-25T13:47:35.986Z,26.05
2023-07-25T13:50:04.868Z,25.42
2023-07-25T13:52:32.690Z,26.83
2023-07-25T13:55:00.490Z,23.45
2023-07-25T13:57:32.791Z,24.33
2023-07-25T14:00:02.151Z,24.58
2023-07-25T14:02:32.734Z,22.95
2023-07-25T14:05:00.514Z,25.13
2023-07-25T14:07:28.231Z,27.20
2023-07-25T14:09:55.848Z,26.92
2023-07-25T14:12:23.562Z,25.58
2023-07-25T14:14:51.481Z,27.02
2023-07-25T14:17:24.107Z,24.67
2023-07-25T14:19:51.694Z,27.77
2023-07-25T14:22:25.515Z,22.92
2023-07-25T14:24:53.382Z,29.90
2023-07-25T14:27:22.794Z,23.48
2023-07-25T14:29:50.465Z,30.40
2023-07-25T14:32:18.138Z,34.45
2023-07-25T14:34:45.700Z,29.27
2023-07-25T14:37:14.019Z,26.98
2023-07-25T14:39:41.757Z,26.25
2023-07-25T14:42:09.592Z,25.00
2023-07-25T14:44:37.162Z,22.52
2023-07-25T14:47:05.616Z,29.35
2023-07-25T14:49:35.456Z,30.77
2023-07-25T14:52:04.766Z,34.28
2023-07-25T14:54:32.770Z,26.13
2023-07-25T14:57:03.406Z,28.83
2023-07-25T14:59:31.408Z,25.65
2023-07-25T15:02:01.988Z,30.00
2023-07-25T15:04:29.663Z,27.67
2023-07-25T15:06:57.373Z,27.33
2023-07-25T15:09:25.015Z,28.15
2023-07-25T15:11:52.558Z,28.85
2023-07-25T15:14:21.345Z,30.63
2023-07-25T15:16:50.428Z,26.73
2023-07-25T15:19:20.862Z,27.92
2023-07-25T15:21:48.574Z,25.77
2023-07-25T15:24:16.458Z,27.13
2023-07-25T15:26:44.092Z,29.00
2023-07-25T15:29:11.590Z,29.13
2023-07-25T15:31:39.299Z,28.08
2023-07-25T15:34:06.909Z,22.70
2023-07-25T15:36:34.596Z,23.55
2023-07-25T15:39:02.169Z,26.80
2023-07-25T15:41:30.229Z,24.27
2023-07-25T15:43:58.032Z,26.70
2023-07-25T15:46:25.650Z,28.02
2023-07-25T15:48:53.236Z,26.90
2023-07-25T15:51:21.058Z,29.40
2023-07-25T15:53:51.178Z,30.38
2023-07-25T15:56:19.079Z,25.63
2023-07-25T15:58:48.658Z,24.38
2023-07-25T16:01:16.286Z,28.13
2023-07-25T16:03:46.446Z,28.83
2023-07-25T16:06:14.533Z,30.73
2023-07-25T16:08:42.177Z,25.88
2023-07-25T16:11:09.839Z,24.80
2023-07-25T16:13:40.934Z,30.05
2023-07-25T16:16:08.629Z,27.38
2023-07-25T16:18:36.199Z,25.48
2023-07-25T16:21:04.017Z,25.98
2023-07-25T16:23:31.605Z,24.90
2023-07-25T16:26:00.780Z,26.33
2023-07-25T16:28:29.277Z,28.67
2023-07-25T16:31:11.561Z,26.13
2023-07-25T16:33:44.348Z,27.38
2023-07-25T16:36:11.983Z,25.98
2023-07-25T16:38:40.781Z,27.13
2023-07-25T16:41:08.421Z,27.77
2023-07-25T16:43:37.721Z,25.63
2023-07-25T16:46:05.444Z,28.45
2023-07-25T16:48:33.080Z,32.30
2023-07-25T16:51:00.660Z,27.27
2023-07-25T16:53:28.780Z,22.48
2023-07-25T16:55:56.661Z,27.48
2023-07-25T16:58:24.202Z,23.42
2023-07-25T17:00:53.396Z,28.30
2023-07-25T17:03:21.036Z,31.33
2023-07-25T17:05:48.927Z,26.98
2023-07-25T17:08:18.413Z,28.42
2023-07-25T17:10:45.939Z,30.17
2023-07-25T17:13:16.569Z,22.27
2023-07-25T17:15:44.918Z,28.38
2023-07-25T17:18:12.608Z,26.25
2023-07-25T17:20:40.231Z,26.05
2023-07-25T17:23:08.135Z,26.33
2023-07-25T17:25:38.286Z,27.13
2023-07-25T17:28:05.932Z,32.22
2023-07-25T17:30:33.499Z,25.75
2023-07-25T17:33:02.112Z,30.73
2023-07-25T17:35:37.671Z,28.08
2023-07-25T17:38:05.924Z,25.75
2023-07-25T17:40:33.697Z,31.33
2023-07-25T17:43:04.377Z,29.35
2023-07-25T17:45:32.333Z,29.45
2023-07-25T17:48:01.090Z,32.38
2023-07-25T17:50:28.893Z,29.50
2023-07-25T17:52:56.680Z,31.30
2023-07-25T17:55:24.300Z,28.13
2023-07-25T17:57:52.041Z,31.55
2023-07-25T18:00:19.791Z,32.90
2023-07-25T18:02:49.082Z,30.85
2023-07-25T18:05:16.722Z,29.23
2023-07-25T18:07:44.318Z,28.33
2023-07-25T18:10:11.985Z,30.27
2023-07-25T18:12:39.574Z,29.88
2023-07-25T18:15:07.584Z,27.85
2023-07-25T18:17:35.272Z,26.42
2023-07-25T18:20:03.835Z,28.20
2023-07-25T18:22:33.252Z,28.73
2023-07-25T18:25:00.986Z,33.42
2023-07-25T18:27:28.592Z,31.02
2023-07-25T18:29:56.445Z,31.73
2023-07-25T18:32:27.048Z,30.40
2023-07-25T18:34:54.804Z,31.85
2023-07-25T18:37:22.299Z,26.95
2023-07-25T18:39:49.957Z,32.60
2023-07-25T18:42:17.557Z,29.70
2023-07-25T18:44:45.154Z,35.03
2023-07-25T18:47:21.245Z,31.33
2023-07-25T18:49:53.032Z,33.95
2023-07-25T18:52:20.676Z,32.20
2023-07-25T18:54:48.255Z,33.00
2023-07-25T18:57:20.167Z,37.58
2023-07-25T18:59:48.489Z,31.98
2023-07-25T19:02:16.198Z,29.45
2023-07-25T19:04:44.227Z,35.05
2023-07-25T19:07:16.406Z,31.75
2023-07-25T19:09:44.493Z,37.58
2023-07-25T19:12:12.208Z,32.38
2023-07-25T19:14:43.276Z,35.35
2023-07-25T19:17:11.165Z,29.33
2023-07-25T19:19:39.494Z,33.67
2023-07-25T19:22:08.338Z,31.88
2023-07-25T19:24:36.058Z,31.85
2023-07-25T19:27:03.846Z,30.13
2023-07-25T19:29:31.363Z,32.60
2023-07-25T19:31:59.068Z,31.00
2023-07-25T19:34:26.909Z,29.40
2023-07-25T19:36:54.507Z,35.63
2023-07-25T19:39:22.164Z,28.80
2023-07-25T19:41:52.267Z,36.20
2023-07-25T19:44:23.576Z,33.40
2023-07-25T19:46:52.979Z,33.20
2023-07-25T19:49:20.856Z,30.40
2023-07-25T19:51:48.495Z,32.72
2023-07-25T19:54:16.347Z,30.45
2023-07-25T19:56:44.077Z,36.25
2023-07-25T19:59:11.641Z,32.17
2023-07-25T20:01:39.388Z,30.25
2023-07-25T20:04:07.121Z,34.75
2023-07-25T20:06:35.869Z,38.38
2023-07-25T20:09:03.392Z,34.25
2023-07-25T20:11:31.079Z,35.75
2023-07-25T20:13:58.809Z,30.35
2023-07-25T20:16:29.828Z,35.90
2023-07-25T20:18:57.546Z,31.10
2023-07-25T20:21:25.175Z,28.70
2023-07-25T20:23:55.844Z,34.67
2023-07-25T20:26:23.410Z,32.60
2023-07-25T20:28:55.253Z,31.02
2023-07-25T20:31:22.764Z,37.33
2023-07-25T20:33:50.294Z,27.02
2023-07-25T20:36:18.454Z,39.67
2023-07-25T20:38:48.398Z,34.35
2023-07-25T20:41:16.015Z,35.33
2023-07-25T20:43:43.557Z,33.88
2023-07-25T20:46:11.348Z,36.95
2023-07-25T20:48:38.901Z,34.35
2023-07-25T20:51:06.874Z,34.13
2023-07-25T20:53:34.435Z,34.65
2023-07-25T20:56:03.125Z,31.92
2023-07-25T20:58:30.818Z,38.45
2023-07-25T21:00:58.441Z,32.67
2023-07-25T21:03:26.268Z,30.48
2023-07-25T21:05:53.974Z,37.00
2023-07-25T21:08:21.500Z,30.13
2023-07-25T21:10:50.827Z,35.67
2023-07-25T21:13:18.475Z,31.55
2023-07-25T21:15:46.056Z,31.80
2023-07-25T21:18:14.355Z,30.88
2023-07-25T21:20:42.615Z,34.13
2023-07-25T21:23:10.463Z,29.88
2023-07-25T21:25:41.383Z,33.10
2023-07-25T21:28:08.988Z,31.00
2023-07-25T21:30:36.594Z,34.75
2023-07-25T21:33:04.227Z,30.55
2023-07-25T21:35:31.882Z,30.38
2023-07-25T21:37:59.642Z,32.88
2023-07-25T21:40:27.328Z,28.70
2023-07-25T21:42:54.925Z,34.20
2023-07-25T21:45:22.504Z,29.08
2023-07-25T21:47:50.189Z,33.30
2023-07-25T21:50:17.777Z,34.30
2023-07-25T21:52:45.566Z,27.88
2023-07-25T21:55:13.438Z,25.98
2023-07-25T21:57:41.016Z,27.60
2023-07-25T22:00:09.014Z,29.45
2023-07-25T22:02:36.663Z,33.10
2023-07-25T22:05:05.101Z,33.15
2023-07-25T22:07:32.660Z,36.03
2023-07-25T22:10:03.063Z,34.00
2023-07-25T22:12:31.369Z,38.28
2023-07-25T22:14:59.095Z,45.67
2023-07-25T22:17:26.733Z,42.28
2023-07-25T22:19:54.684Z,43.20
2023-07-25T22:22:22.452Z,38.15
2023-07-25T22:24:49.984Z,47.47
2023-07-25T22:27:17.860Z,51.90
2023-07-25T22:29:48.420Z,49.42
2023-07-25T22:32:16.002Z,49.47
2023-07-25T22:34:43.556Z,51.13
2023-07-25T22:37:11.097Z,52.13
2023-07-25T22:39:38.938Z,52.67
2023-07-25T22:42:06.678Z,54.50
2023-07-25T22:44:34.359Z,56.90
2023-07-25T22:47:01.999Z,51.72
2023-07-25T22:49:29.582Z,54.55
2023-07-25T22:51:57.212Z,56.38
2023-07-25T22:54:24.711Z,48.03
2023-07-25T22:56:52.468Z,53.78
2023-07-25T22:59:20.193Z,49.33
2023-07-25T23:01:47.795Z,51.55
2023-07-25T23:04:15.476Z,51.97
2023-07-25T23:06:43.026Z,49.45
2023-07-25T23:09:10.574Z,48.00
2023-07-25T23:11:38.124Z,53.08
2023-07-25T23:14:05.816Z,42.60
2023-07-25T23:16:33.764Z,43.15
2023-07-25T23:19:01.650Z,46.35
2023-07-25T23:21:29.218Z,46.80
2023-07-25T23:23:56.993Z,42.88
2023-07-25T23:26:24.604Z,46.45
2023-07-25T23:28:52.146Z,40.13
2023-07-25T23:31:19.782Z,41.55
2023-07-25T23:33:47.475Z,43.47
2023-07-25T23:36:15.626Z,48.35
2023-07-25T23:38:43.476Z,43.25
2023-07-25T23:41:11.129Z,51.80
2023-07-25T23:43:38.675Z,46.17
2023-07-25T23:46:06.165Z,47.20
2023-07-25T23:48:37.406Z,52.65
2023-07-25T23:51:04.959Z,46.57
2023-07-25T23:53:32.530Z,42.75
2023-07-25T23:56:00.391Z,44.35
2023-07-25T23:58:28.158Z,46.08
